createdAt,value
2023-01-23T00:01:08.852Z,1.20
2023-01-23T00:03:35.369Z,1.18
2023-01-23T00:06:07.660Z,1.21
2023-01-23T00:08:35.293Z,1.22
2023-01-23T00:11:05.845Z,1.20
2023-01-23T00:13:32.373Z,1.19
2023-01-23T00:15:58.887Z,1.13
2023-01-23T00:18:25.330Z,1.18
2023-01-23T00:20:51.848Z,1.18
2023-01-23T00:23:18.307Z,1.20
2023-01-23T00:25:44.775Z,1.22
2023-01-23T00:28:11.547Z,1.27
2023-01-23T00:30:38.031Z,1.26
2023-01-23T00:33:04.494Z,1.20
2023-01-23T00:35:31.090Z,1.19
2023-01-23T00:37:57.963Z,1.22
2023-01-23T00:40:24.541Z,1.25
2023-01-23T00:42:51.000Z,1.27
2023-01-23T00:45:17.731Z,1.27
2023-01-23T00:47:45.201Z,1.29
2023-01-23T00:50:11.905Z,1.25
2023-01-23T00:52:38.332Z,1.23
2023-01-23T00:55:05.452Z,1.20
2023-01-23T00:57:32.061Z,1.20
2023-01-23T00:59:58.528Z,1.18
2023-01-23T01:02:25.507Z,1.19
2023-01-23T01:04:52.894Z,1.20
2023-01-23T01:07:19.421Z,1.21
2023-01-23T01:09:47.219Z,1.22
2023-01-23T01:12:16.339Z,1.20
2023-01-23T01:14:42.838Z,1.19
2023-01-23T01:17:09.349Z,1.17
2023-01-23T01:19:36.387Z,1.15
2023-01-23T01:22:02.971Z,1.17
2023-01-23T01:24:29.558Z,1.19
2023-01-23T01:26:56.032Z,1.18
2023-01-23T01:29:23.097Z,1.17
2023-01-23T01:31:49.563Z,1.16
2023-01-23T01:34:16.081Z,1.16
2023-01-23T01:36:42.895Z,1.16
2023-01-23T01:39:09.357Z,1.13
2023-01-23T01:41:36.377Z,1.11
2023-01-23T01:44:03.274Z,1.09
2023-01-23T01:46:31.014Z,1.11
2023-01-23T01:49:08.137Z,1.10
2023-01-23T01:51:40.596Z,1.10
2023-01-23T01:54:40.825Z,1.12
2023-01-23T01:57:27.336Z,1.11
2023-01-23T02:00:04.547Z,1.10
2023-01-23T02:02:58.874Z,1.11
2023-01-23T02:05:35.589Z,1.09
2023-01-23T02:08:10.895Z,1.05
2023-01-23T02:10:38.327Z,1.05
2023-01-23T02:13:33.610Z,1.10
2023-01-23T02:16:11.475Z,1.07
2023-01-23T02:18:42.628Z,1.01
2023-01-23T02:21:09.469Z,0.94
2023-01-23T02:24:03.723Z,0.92
2023-01-23T02:26:43.926Z,0.86
2023-01-23T02:29:11.192Z,0.81
2023-01-23T02:31:46.071Z,0.81
2023-01-23T02:34:14.514Z,0.75
2023-01-23T02:36:43.896Z,0.68
2023-01-23T02:39:19.227Z,0.60
2023-01-23T02:41:51.477Z,0.50
2023-01-23T02:44:26.617Z,0.48
2023-01-23T02:46:59.217Z,0.48
2023-01-23T02:49:27.104Z,0.45
2023-01-23T02:51:54.479Z,0.45
2023-01-23T02:54:21.450Z,0.50
2023-01-23T02:56:48.331Z,0.53
2023-01-23T02:59:34.332Z,0.58
2023-01-23T03:02:00.818Z,0.60
2023-01-23T03:04:27.233Z,0.60
2023-01-23T03:06:53.676Z,0.64
2023-01-23T03:09:20.275Z,0.69
2023-01-23T03:11:47.031Z,0.70
2023-01-23T03:14:16.027Z,0.74
2023-01-23T03:16:42.836Z,0.80
2023-01-23T03:19:10.139Z,0.77
2023-01-23T03:21:42.046Z,0.80
2023-01-23T03:24:11.348Z,0.77
2023-01-23T03:26:39.464Z,0.78
2023-01-23T03:29:25.603Z,0.77
2023-01-23T03:31:52.795Z,0.78
2023-01-23T03:34:22.024Z,0.77
2023-01-23T03:36:48.580Z,0.79
2023-01-23T03:39:34.227Z,0.84
2023-01-23T03:42:00.701Z,0.82
2023-01-23T03:44:29.585Z,0.89
2023-01-23T03:46:56.785Z,0.91
2023-01-23T03:49:23.826Z,0.91
2023-01-23T03:51:56.900Z,0.82
2023-01-23T03:54:23.451Z,0.84
2023-01-23T03:56:50.836Z,0.85
2023-01-23T03:59:43.040Z,0.85
2023-01-23T04:02:09.940Z,0.86
2023-01-23T04:04:36.502Z,0.87
2023-01-23T04:07:08.366Z,0.90
2023-01-23T04:09:36.805Z,0.91
2023-01-23T04:12:03.416Z,0.90
2023-01-23T04:14:37.117Z,0.92
2023-01-23T04:17:05.096Z,0.93
2023-01-23T04:19:31.571Z,0.94
2023-01-23T04:21:58.043Z,0.93
2023-01-23T04:24:24.568Z,0.95
2023-01-23T04:26:51.387Z,0.97
2023-01-23T04:29:17.979Z,0.95
2023-01-23T04:31:45.114Z,0.96
2023-01-23T04:34:13.088Z,0.96
2023-01-23T04:36:41.240Z,0.91
2023-01-23T04:39:08.134Z,0.90
2023-01-23T04:41:36.716Z,0.90
2023-01-23T04:44:22.270Z,0.87
2023-01-23T04:47:04.257Z,0.87
2023-01-23T04:49:30.724Z,0.84
2023-01-23T04:51:58.416Z,0.85
2023-01-23T04:54:25.895Z,0.84
2023-01-23T04:56:53.737Z,0.82
2023-01-23T04:59:21.532Z,0.87
2023-01-23T05:01:48.080Z,0.96
2023-01-23T05:04:16.288Z,0.94
2023-01-23T05:06:43.952Z,0.91
2023-01-23T05:09:12.537Z,0.93
2023-01-23T05:11:44.812Z,0.95
2023-01-23T05:14:12.907Z,0.99
2023-01-23T05:16:40.955Z,0.99
2023-01-23T05:19:16.510Z,1.06
2023-01-23T05:21:43.476Z,1.09
2023-01-23T05:24:14.822Z,1.07
2023-01-23T05:26:42.793Z,1.11
2023-01-23T05:29:09.352Z,1.12
2023-01-23T05:31:40.878Z,1.11
2023-01-23T05:34:30.743Z,1.14
2023-01-23T05:37:00.533Z,1.16
2023-01-23T05:39:27.884Z,1.12
2023-01-23T05:41:55.952Z,1.10
2023-01-23T05:44:30.846Z,1.03
2023-01-23T05:47:07.144Z,0.94
2023-01-23T05:49:33.885Z,0.98
2023-01-23T05:52:01.606Z,0.96
2023-01-23T05:54:28.343Z,0.99
2023-01-23T05:56:54.826Z,0.97
2023-01-23T05:59:40.062Z,1.04
2023-01-23T06:02:25.359Z,1.06
2023-01-23T06:05:10.774Z,1.08
2023-01-23T06:07:55.777Z,1.08
2023-01-23T06:10:23.393Z,1.06
2023-01-23T06:12:49.946Z,1.04
2023-01-23T06:15:16.467Z,1.01
2023-01-23T06:17:44.740Z,1.04
2023-01-23T06:20:12.461Z,1.01
2023-01-23T06:22:41.642Z,0.99
2023-01-23T06:25:11.692Z,1.04
2023-01-23T06:27:38.274Z,1.07
2023-01-23T06:30:08.329Z,1.11
2023-01-23T06:32:40.007Z,1.14
2023-01-23T06:35:08.619Z,1.12
2023-01-23T06:37:38.709Z,1.11
2023-01-23T06:40:06.729Z,1.10
2023-01-23T06:42:34.035Z,1.06
2023-01-23T06:45:00.915Z,1.06
2023-01-23T06:47:29.999Z,1.10
2023-01-23T06:50:01.837Z,1.07
2023-01-23T06:52:30.812Z,1.08
2023-01-23T06:54:57.274Z,1.04
2023-01-23T06:57:23.815Z,1.12
2023-01-23T06:59:50.723Z,1.17
2023-01-23T07:02:19.575Z,1.23
2023-01-23T07:04:49.378Z,1.23
2023-01-23T07:07:15.892Z,1.22
2023-01-23T07:09:43.060Z,1.18
2023-01-23T07:12:17.351Z,1.23
2023-01-23T07:14:44.668Z,1.23
2023-01-23T07:17:16.257Z,1.27
2023-01-23T07:19:42.762Z,1.27
2023-01-23T07:22:12.755Z,1.27
2023-01-23T07:24:39.915Z,1.29
2023-01-23T07:27:06.364Z,1.33
2023-01-23T07:29:32.758Z,1.35
2023-01-23T07:32:00.989Z,1.38
2023-01-23T07:34:28.041Z,1.42
2023-01-23T07:36:54.516Z,1.40
2023-01-23T07:39:20.956Z,1.39
2023-01-23T07:41:47.499Z,1.41
2023-01-23T07:44:18.511Z,1.52
2023-01-23T07:46:45.810Z,1.57
2023-01-23T07:49:12.781Z,1.57
2023-01-23T07:51:39.233Z,1.56
2023-01-23T07:54:06.107Z,1.64
2023-01-23T07:56:32.802Z,1.70
2023-01-23T07:58:59.868Z,1.69
2023-01-23T08:01:26.383Z,1.74
2023-01-23T08:03:53.384Z,1.77
2023-01-23T08:06:20.022Z,1.77
2023-01-23T08:08:49.587Z,1.81
2023-01-23T08:11:16.846Z,1.84
2023-01-23T08:13:43.267Z,1.73
2023-01-23T08:16:11.449Z,1.64
2023-01-23T08:18:39.861Z,1.63
2023-01-23T08:21:06.313Z,1.66
2023-01-23T08:23:34.475Z,1.74
2023-01-23T08:26:04.886Z,1.76
2023-01-23T08:28:31.822Z,1.79
2023-01-23T08:31:06.245Z,1.82
2023-01-23T08:33:34.161Z,1.88
2023-01-23T08:36:00.800Z,1.93
2023-01-23T08:38:27.400Z,1.94
2023-01-23T08:40:55.231Z,2.00
2023-01-23T08:43:21.797Z,1.98
2023-01-23T08:45:50.761Z,2.00
2023-01-23T08:48:17.758Z,2.06
2023-01-23T08:50:44.275Z,2.05
2023-01-23T08:53:10.837Z,2.02
2023-01-23T08:55:38.768Z,2.05
2023-01-23T08:58:09.660Z,2.14
2023-01-23T09:00:36.406Z,2.07
2023-01-23T09:03:03.373Z,2.06
2023-01-23T09:05:30.080Z,2.06
2023-01-23T09:07:57.034Z,2.04
2023-01-23T09:10:24.273Z,2.11
2023-01-23T09:12:51.860Z,2.12
2023-01-23T09:15:18.460Z,2.13
2023-01-23T09:17:45.037Z,2.13
2023-01-23T09:20:12.025Z,2.10
2023-01-23T09:22:38.447Z,2.09
2023-01-23T09:25:05.484Z,2.07
2023-01-23T09:27:31.967Z,2.03
2023-01-23T09:29:58.466Z,2.04
2023-01-23T09:32:25.136Z,2.06
2023-01-23T09:34:51.583Z,2.12
2023-01-23T09:37:18.054Z,2.14
2023-01-23T09:39:44.878Z,2.21
2023-01-23T09:42:33.079Z,2.22
2023-01-23T09:45:05.417Z,2.15
2023-01-23T09:47:36.841Z,2.09
2023-01-23T09:50:07.097Z,2.06
2023-01-23T09:52:37.196Z,2.11
2023-01-23T09:55:25.012Z,2.13
2023-01-23T09:57:56.920Z,2.17
2023-01-23T10:00:30.013Z,2.26
2023-01-23T10:02:56.829Z,2.28
2023-01-23T10:05:39.210Z,2.19
2023-01-23T10:08:44.559Z,2.07
2023-01-23T10:11:22.824Z,2.10
2023-01-23T10:14:04.251Z,2.07
2023-01-23T10:16:53.859Z,2.08
2023-01-23T10:19:35.491Z,2.11
2023-01-23T10:22:08.281Z,2.17
2023-01-23T10:24:50.660Z,2.27
2023-01-23T10:27:23.253Z,2.27
2023-01-23T10:30:05.430Z,2.32
2023-01-23T10:32:58.226Z,2.24
2023-01-23T10:35:36.272Z,2.28
2023-01-23T10:38:10.795Z,2.31
2023-01-23T10:40:55.820Z,2.33
2023-01-23T10:43:22.545Z,2.33
2023-01-23T10:45:49.766Z,2.40
2023-01-23T10:48:32.242Z,2.27
2023-01-23T10:50:59.887Z,2.22
2023-01-23T10:53:26.947Z,2.24
2023-01-23T10:55:57.339Z,2.25
2023-01-23T10:58:35.752Z,2.35
2023-01-23T11:01:02.818Z,2.39
2023-01-23T11:03:34.631Z,2.45
2023-01-23T11:06:17.618Z,2.44
2023-01-23T11:09:00.355Z,2.45
2023-01-23T11:11:28.804Z,2.46
2023-01-23T11:14:21.548Z,2.51
2023-01-23T11:17:00.200Z,2.63
2023-01-23T11:19:26.669Z,2.62
2023-01-23T11:21:58.559Z,2.55
2023-01-23T11:24:38.387Z,2.51
2023-01-23T11:27:17.875Z,2.51
2023-01-23T11:30:00.964Z,2.43
2023-01-23T11:32:29.360Z,2.37
2023-01-23T11:35:08.520Z,2.35
2023-01-23T11:37:35.831Z,2.38
2023-01-23T11:40:10.140Z,2.37
2023-01-23T11:42:40.292Z,2.33
2023-01-23T11:45:43.845Z,2.39
2023-01-23T11:48:32.048Z,2.44
2023-01-23T11:51:08.926Z,2.53
2023-01-23T11:53:43.034Z,2.57
2023-01-23T11:56:21.106Z,2.52
2023-01-23T11:58:59.565Z,2.52
2023-01-23T12:01:49.316Z,2.56
2023-01-23T12:04:34.104Z,2.65
2023-01-23T12:07:03.669Z,2.72
2023-01-23T12:09:43.384Z,2.83
2023-01-23T12:12:30.861Z,2.84
2023-01-23T12:15:06.268Z,2.89
2023-01-23T12:17:40.759Z,2.83
2023-01-23T12:20:28.285Z,2.84
2023-01-23T12:23:24.604Z,2.85
2023-01-23T12:26:14.042Z,2.71
2023-01-23T12:28:53.152Z,2.69
2023-01-23T12:31:29.733Z,2.68
2023-01-23T12:34:02.195Z,2.80
2023-01-23T12:37:08.204Z,2.85
2023-01-23T12:39:58.927Z,2.79
2023-01-23T12:42:27.091Z,2.69
2023-01-23T12:44:59.464Z,2.66
2023-01-23T12:47:34.475Z,2.67
2023-01-23T12:50:22.290Z,2.84
2023-01-23T12:52:59.349Z,2.86
2023-01-23T12:55:31.134Z,2.88
2023-01-23T12:58:08.158Z,2.88
2023-01-23T13:01:01.546Z,2.93
2023-01-23T13:03:51.653Z,2.94
2023-01-23T13:06:41.560Z,2.97
2023-01-23T13:09:18.769Z,2.95
2023-01-23T13:12:22.835Z,2.94
2023-01-23T13:15:34.242Z,2.85
2023-01-23T13:17:48.416Z,2.77
2023-01-23T13:20:36.257Z,2.82
2023-01-23T13:23:28.791Z,2.83
2023-01-23T13:26:16.595Z,2.81
2023-01-23T13:28:45.990Z,2.80
2023-01-23T13:31:45.179Z,2.87
2023-01-23T13:34:17.750Z,2.98
2023-01-23T13:36:48.154Z,3.00
2023-01-23T13:39:17.800Z,2.98
2023-01-23T13:41:47.958Z,2.99
2023-01-23T13:44:27.154Z,3.07
2023-01-23T14:24:57.601Z,2.87
2023-01-23T14:27:51.292Z,2.94
2023-01-23T14:30:24.508Z,3.02
2023-01-23T14:32:50.920Z,3.03
2023-01-23T14:35:33.740Z,3.00
2023-01-23T14:38:03.104Z,3.03
2023-01-23T14:40:37.281Z,3.09
2023-01-23T14:43:18.275Z,3.09
2023-01-23T14:46:01.169Z,3.08
2023-01-23T14:48:27.917Z,3.09
2023-01-23T14:51:06.750Z,3.09
2023-01-23T14:53:33.171Z,3.10
2023-01-23T14:56:01.800Z,3.09
2023-01-23T14:58:28.760Z,3.09
2023-01-23T15:00:55.955Z,3.13
2023-01-23T15:03:42.670Z,3.09
2023-01-23T15:06:15.255Z,3.10
2023-01-23T15:08:42.431Z,3.10
2023-01-23T15:11:12.062Z,3.11
2023-01-23T15:13:43.056Z,3.04
2023-01-23T15:16:15.514Z,3.03
2023-01-23T15:19:00.464Z,2.97
2023-01-23T15:21:30.253Z,2.95
2023-01-23T15:24:08.912Z,2.96
2023-01-23T15:26:40.441Z,3.01
2023-01-23T15:29:06.839Z,3.06
2023-01-23T15:31:39.419Z,3.15
2023-01-23T15:34:14.880Z,3.19
2023-01-23T15:37:13.644Z,3.20
2023-01-23T15:39:49.701Z,3.21
2023-01-23T15:42:16.054Z,3.20
2023-01-23T15:44:43.219Z,3.16
2023-01-23T15:47:10.230Z,3.11
2023-01-23T15:49:39.534Z,3.01
2023-01-23T15:52:14.716Z,2.96
2023-01-23T15:54:41.303Z,2.84
2023-01-23T15:57:11.982Z,2.69
2023-01-23T15:59:38.389Z,2.64
2023-01-23T16:02:08.113Z,2.56
2023-01-23T16:04:35.816Z,2.47
2023-01-23T16:07:06.531Z,2.39
2023-01-23T16:09:35.909Z,2.33
2023-01-23T16:12:02.283Z,2.32
2023-01-23T16:14:28.696Z,2.21
2023-01-23T16:16:58.122Z,2.16
2023-01-23T16:19:26.611Z,2.11
2023-01-23T16:22:04.218Z,2.01
2023-01-23T16:24:35.336Z,1.95
2023-01-23T16:27:02.508Z,1.87
2023-01-23T16:29:31.373Z,1.86
2023-01-23T16:31:59.298Z,1.78
2023-01-23T16:34:26.155Z,1.68
2023-01-23T16:36:54.326Z,1.63
2023-01-23T16:39:24.695Z,1.56
2023-01-23T16:41:51.408Z,1.52
2023-01-23T16:44:18.815Z,1.52
2023-01-23T16:46:46.144Z,1.47
2023-01-23T16:49:13.521Z,1.45
2023-01-23T16:51:42.664Z,1.43
2023-01-23T16:54:18.836Z,1.36
2023-01-23T16:56:47.829Z,1.37
2023-01-23T16:59:17.491Z,1.31
2023-01-23T17:01:45.958Z,1.26
2023-01-23T17:04:15.679Z,1.27
2023-01-23T17:06:42.169Z,1.23
2023-01-23T17:09:10.398Z,1.23
2023-01-23T17:11:39.848Z,1.22
2023-01-23T17:14:15.081Z,1.24
2023-01-23T17:16:41.902Z,1.26
2023-01-23T17:19:34.734Z,1.25
2023-01-23T17:22:02.778Z,1.20
2023-01-23T17:24:29.390Z,1.18
2023-01-23T17:26:55.937Z,1.20
2023-01-23T17:29:22.883Z,1.16
2023-01-23T17:31:49.413Z,1.18
2023-01-23T17:34:21.301Z,1.18
2023-01-23T17:36:48.220Z,1.12
2023-01-23T17:39:14.823Z,1.08
2023-01-23T17:41:41.280Z,1.05
2023-01-23T17:44:07.739Z,1.06
2023-01-23T17:46:37.618Z,1.05
2023-01-23T17:49:05.354Z,1.03
2023-01-23T17:51:32.400Z,1.01
2023-01-23T17:53:58.924Z,0.97
2023-01-23T17:56:25.380Z,0.92
2023-01-23T17:58:51.826Z,0.98
2023-01-23T18:01:21.885Z,0.95
2023-01-23T18:03:49.740Z,0.97
2023-01-23T18:06:16.645Z,0.90
2023-01-23T18:08:43.189Z,0.92
2023-01-23T18:11:18.816Z,0.93
2023-01-23T18:13:54.441Z,0.89
2023-01-23T18:16:25.992Z,0.84
2023-01-23T18:19:13.076Z,0.88
2023-01-23T18:21:39.727Z,0.84
2023-01-23T18:24:06.677Z,0.80
2023-01-23T18:26:39.467Z,0.81
2023-01-23T18:29:20.541Z,0.81
2023-01-23T18:32:14.946Z,0.77
2023-01-23T18:34:59.802Z,0.71
2023-01-23T18:37:26.119Z,0.65
2023-01-23T18:40:20.794Z,0.63
2023-01-23T18:43:16.681Z,0.60
2023-01-23T18:45:43.444Z,0.54
2023-01-23T18:48:24.789Z,0.56
2023-01-23T18:50:59.259Z,0.64
2023-01-23T18:54:04.474Z,0.64
2023-01-23T18:56:34.111Z,0.63
2023-01-23T18:59:12.773Z,0.61
2023-01-23T19:01:50.144Z,0.62
2023-01-23T19:04:17.617Z,0.68
2023-01-23T19:06:44.744Z,0.72
2023-01-23T19:09:21.241Z,0.69
2023-01-23T19:12:14.013Z,0.74
2023-01-23T19:14:55.621Z,0.74
2023-01-23T19:17:36.673Z,0.77
2023-01-23T19:20:24.002Z,0.80
2023-01-23T19:23:12.305Z,0.76
2023-01-23T19:25:38.795Z,0.74
2023-01-23T19:28:07.016Z,0.76
2023-01-23T19:30:33.721Z,0.74
2023-01-23T19:33:00.328Z,0.71
2023-01-23T19:35:26.819Z,0.69
2023-01-23T19:37:53.310Z,0.69
2023-01-23T19:40:19.736Z,0.67
2023-01-23T19:42:54.326Z,0.68
2023-01-23T19:45:25.310Z,0.67
2023-01-23T19:47:53.222Z,0.70
2023-01-23T19:50:20.505Z,0.74
2023-01-23T19:52:48.452Z,0.77
2023-01-23T19:55:30.183Z,0.75
2023-01-23T19:57:57.012Z,0.75
2023-01-23T20:00:29.731Z,0.74
2023-01-23T20:02:56.497Z,0.72
2023-01-23T20:05:23.423Z,0.74
2023-01-23T20:07:50.207Z,0.76
2023-01-23T20:10:17.320Z,0.78
2023-01-23T20:12:46.159Z,0.86
2023-01-23T20:15:14.401Z,0.87
2023-01-23T20:17:41.356Z,0.86
2023-01-23T20:20:09.692Z,0.93
2023-01-23T20:22:36.220Z,0.94
2023-01-23T20:25:02.666Z,0.88
2023-01-23T20:27:29.224Z,0.91
2023-01-23T20:29:55.712Z,0.91
2023-01-23T20:32:22.186Z,0.92
2023-01-23T20:34:48.596Z,0.96
2023-01-23T20:37:15.000Z,0.96
2023-01-23T20:39:41.555Z,1.01
2023-01-23T20:42:09.448Z,1.06
2023-01-23T20:44:37.108Z,1.07
2023-01-23T20:47:03.570Z,1.10
2023-01-23T20:49:30.143Z,1.16
2023-01-23T20:52:16.659Z,1.20
2023-01-23T20:54:43.093Z,1.20
2023-01-23T20:57:09.630Z,1.22
2023-01-23T20:59:36.053Z,1.27
2023-01-23T21:02:21.079Z,1.31
2023-01-23T21:04:47.520Z,1.36
2023-01-23T21:07:13.977Z,1.38
2023-01-23T21:09:41.764Z,1.38
2023-01-23T21:12:08.818Z,1.36
2023-01-23T21:14:35.561Z,1.37
2023-01-23T21:17:02.402Z,1.35
2023-01-23T21:19:28.897Z,1.36
2023-01-23T21:21:55.573Z,1.41
2023-01-23T21:24:22.111Z,1.46
2023-01-23T21:26:48.698Z,1.49
2023-01-23T21:29:15.410Z,1.50
2023-01-23T21:31:42.013Z,1.50
2023-01-23T21:34:10.884Z,1.47
2023-01-23T21:36:37.779Z,1.51
2023-01-23T21:39:05.180Z,1.55
2023-01-23T21:41:31.914Z,1.50
2023-01-23T21:43:58.382Z,1.53
2023-01-23T21:46:24.899Z,1.52
2023-01-23T21:48:52.138Z,1.51
2023-01-23T21:51:21.411Z,1.57
2023-01-23T21:53:48.488Z,1.61
2023-01-23T21:56:17.151Z,1.62
2023-01-23T21:58:43.715Z,1.61
2023-01-23T22:01:31.786Z,1.63
2023-01-23T22:04:04.395Z,1.68
2023-01-23T22:06:31.692Z,1.74
2023-01-23T22:08:58.182Z,1.78
2023-01-23T22:11:24.652Z,1.76
2023-01-23T22:13:51.179Z,1.77
2023-01-23T22:16:17.841Z,1.81
2023-01-23T22:18:44.472Z,1.77
2023-01-23T22:21:11.013Z,1.83
2023-01-23T22:23:37.474Z,1.82
2023-01-23T22:26:07.945Z,1.84
2023-01-23T22:28:35.031Z,1.82
2023-01-23T22:31:12.431Z,1.83
2023-01-23T22:33:41.129Z,1.85
2023-01-23T22:36:09.483Z,1.90
2023-01-23T22:38:36.099Z,1.88
2023-01-23T22:41:05.078Z,1.89
2023-01-23T22:43:32.286Z,1.86
2023-01-23T22:46:09.113Z,1.80
2023-01-23T22:48:36.129Z,1.78
2023-01-23T22:51:05.039Z,1.76
2023-01-23T22:53:31.919Z,1.71
2023-01-23T22:55:58.543Z,1.73
2023-01-23T22:58:25.103Z,1.76
2023-01-23T23:00:53.135Z,1.78
2023-01-23T23:03:21.208Z,1.79
2023-01-23T23:05:58.880Z,1.79
2023-01-23T23:08:25.360Z,1.87
2023-01-23T23:11:19.433Z,1.92
2023-01-23T23:13:46.120Z,1.90
2023-01-23T23:16:17.934Z,1.88
2023-01-23T23:18:46.252Z,1.94
2023-01-23T23:21:14.126Z,2.00
2023-01-23T23:23:40.531Z,1.98
2023-01-23T23:26:09.153Z,2.02
2023-01-23T23:28:36.490Z,2.01
2023-01-23T23:31:03.081Z,2.02
2023-01-23T23:33:29.925Z,2.05
2023-01-23T23:35:56.401Z,2.01
2023-01-23T23:38:23.173Z,2.06
2023-01-23T23:40:57.450Z,2.06
2023-01-23T23:43:24.412Z,1.99
2023-01-23T23:45:55.336Z,1.89
2023-01-23T23:48:22.331Z,1.82
2023-01-23T23:50:48.843Z,1.80
2023-01-23T23:53:15.391Z,1.72
2023-01-23T23:55:41.864Z,1.86
2023-01-23T23:58:08.405Z,1.92
